Time;durP1;ratioP1;P1;durP2;ratioP2;P2;SDS_P1;SDS_P2;PMS_P1;PMS_P2;Temp;Humidity;BMP_temperature;BMP_pressure;BME280_temperature;BME280_humidity;BME280_pressure;Samples;Min_cycle;Max_cycle;Signal;HPM_P1;HPM_P2
2021/01/20 00:00:15;;;;;;;7.13;3.17;;;6.20;99.90;;;;;;5018568;28;20275;-77
2021/01/20 00:02:41;;;;;;;4.87;2.57;;;6.10;99.90;;;;;;5011868;28;20180;-77
2021/01/20 00:05:08;;;;;;;3.97;2.30;;;6.20;99.90;;;;;;5012828;28;20441;-78
2021/01/20 00:07:33;;;;;;;2.70;2.10;;;6.10;99.90;;;;;;5014800;28;20779;-77
2021/01/20 00:09:59;;;;;;;7.87;2.37;;;6.10;99.90;;;;;;5010283;28;20522;-78
2021/01/20 00:12:27;;;;;;;3.13;2.70;;;6.10;99.90;;;;;;5005822;28;20172;-77
2021/01/20 00:14:53;;;;;;;2.47;2.10;;;6.20;99.90;;;;;;5012539;28;20536;-78
2021/01/20 00:17:19;;;;;;;4.03;2.30;;;6.20;99.90;;;;;;5010104;28;20441;-78
2021/01/20 00:19:45;;;;;;;3.60;2.70;;;6.20;99.90;;;;;;5010712;28;21022;-78
2021/01/20 00:22:12;;;;;;;6.10;2.10;;;6.00;99.90;;;;;;5012160;28;20180;-78
2021/01/20 00:24:38;;;;;;;2.60;2.27;;;6.00;99.90;;;;;;4999910;28;20471;-77
2021/01/20 00:27:08;;;;;;;3.63;1.90;;;6.00;99.90;;;;;;5010712;28;20458;-78
2021/01/20 00:29:34;;;;;;;4.00;2.30;;;6.00;99.90;;;;;;5009288;28;20958;-78
2021/01/20 00:32:01;;;;;;;4.23;2.33;;;6.00;99.90;;;;;;5017989;28;20446;-78
2021/01/20 00:34:27;;;;;;;5.00;2.37;;;6.00;99.90;;;;;;5026857;28;20438;-79
2021/01/20 00:36:52;;;;;;;4.93;2.53;;;6.00;99.90;;;;;;5014385;28;20415;-79
2021/01/20 00:39:18;;;;;;;4.83;2.17;;;5.90;99.90;;;;;;5013009;28;20437;-78
2021/01/20 00:41:45;;;;;;;3.73;2.47;;;6.00;99.90;;;;;;5016495;28;20206;-78
2021/01/20 00:44:11;;;;;;;4.50;2.53;;;6.10;99.90;;;;;;5013025;28;20176;-79
2021/01/20 00:46:37;;;;;;;4.63;2.43;;;6.10;99.90;;;;;;5011860;28;20521;-78
2021/01/20 00:49:03;;;;;;;4.33;2.30;;;6.00;99.90;;;;;;5011533;28;20458;-78
2021/01/20 00:51:28;;;;;;;4.70;2.40;;;6.10;99.90;;;;;;5012488;28;20259;-78
2021/01/20 00:53:54;;;;;;;3.80;2.87;;;6.20;99.90;;;;;;5013293;28;20435;-78
2021/01/20 00:56:19;;;;;;;3.20;2.33;;;6.20;99.90;;;;;;5014990;28;20511;-78
2021/01/20 00:58:45;;;;;;;6.83;2.23;;;6.20;99.90;;;;;;5011457;28;20203;-79
2021/01/20 01:01:11;;;;;;;5.97;2.50;;;6.10;99.90;;;;;;5011555;28;20680;-78
2021/01/20 01:03:36;;;;;;;4.30;2.50;;;6.00;99.90;;;;;;5012076;28;20187;-78
2021/01/20 01:06:03;;;;;;;3.47;2.70;;;6.00;99.90;;;;;;5008427;28;20532;-78
2021/01/20 01:08:28;;;;;;;2.97;2.13;;;5.90;99.90;;;;;;5006681;28;20210;-77
2021/01/20 01:10:54;;;;;;;4.57;2.90;;;5.90;99.90;;;;;;5010717;28;20451;-78
2021/01/20 01:13:21;;;;;;;7.70;2.93;;;5.90;99.90;;;;;;5013213;28;20633;-78
2021/01/20 01:15:46;;;;;;;4.23;3.03;;;5.90;99.90;;;;;;5019179;28;20181;-78
2021/01/20 01:18:12;;;;;;;4.30;2.70;;;5.90;99.90;;;;;;5022131;28;20474;-77
2021/01/20 01:20:38;;;;;;;7.90;2.80;;;5.90;99.90;;;;;;5011245;28;20196;-78
2021/01/20 01:23:04;;;;;;;6.00;2.63;;;6.00;99.90;;;;;;5011478;28;20439;-77
2021/01/20 01:25:29;;;;;;;6.20;2.40;;;6.00;99.90;;;;;;5011137;28;20800;-77
2021/01/20 01:27:55;;;;;;;4.20;2.47;;;6.00;99.90;;;;;;5011855;28;20239;-77
2021/01/20 01:30:21;;;;;;;6.83;2.80;;;6.00;99.90;;;;;;5009693;28;20204;-79
2021/01/20 01:32:46;;;;;;;3.87;3.40;;;6.00;99.90;;;;;;5011707;28;20187;-77
2021/01/20 01:35:12;;;;;;;5.00;3.03;;;6.10;99.90;;;;;;5011355;28;20172;-78
2021/01/20 01:37:38;;;;;;;6.50;3.23;;;6.10;99.90;;;;;;5008095;28;20177;-79
2021/01/20 01:40:05;;;;;;;5.03;2.90;;;6.20;99.90;;;;;;5001771;28;20315;-78
2021/01/20 01:42:31;;;;;;;5.10;2.27;;;6.10;99.90;;;;;;5011523;28;20997;-77
2021/01/20 01:44:57;;;;;;;8.20;2.60;;;6.10;99.90;;;;;;5011488;28;20427;-78
2021/01/20 01:47:23;;;;;;;3.10;2.00;;;6.20;99.90;;;;;;5010922;28;20203;-77
2021/01/20 01:49:49;;;;;;;3.53;2.23;;;6.30;99.90;;;;;;5010032;28;20181;-77
2021/01/20 01:52:15;;;;;;;4.07;2.33;;;6.30;99.90;;;;;;5023301;28;20410;-78
2021/01/20 01:54:43;;;;;;;5.93;2.20;;;6.40;99.90;;;;;;5009839;28;20435;-77
2021/01/20 01:57:09;;;;;;;6.17;2.63;;;6.30;99.90;;;;;;5010265;28;20423;-77
2021/01/20 01:59:34;;;;;;;6.50;2.73;;;6.30;99.90;;;;;;5005081;28;20458;-77
2021/01/20 02:02:00;;;;;;;3.70;3.00;;;6.20;99.90;;;;;;5012839;28;20442;-77
2021/01/20 02:04:25;;;;;;;3.17;2.30;;;6.20;99.90;;;;;;5017347;28;20202;-77
2021/01/20 02:06:54;;;;;;;2.63;2.23;;;6.20;99.90;;;;;;5022001;28;20196;-77
2021/01/20 02:09:21;;;;;;;4.70;2.67;;;6.20;99.90;;;;;;5011219;28;20177;-78
2021/01/20 02:12:08;;;;;;;6.20;3.60;;;6.30;99.90;;;;;;4999536;28;20447;-77
2021/01/20 02:14:39;;;;;;;2.77;2.50;;;6.40;99.90;;;;;;5014435;28;20822;-77
2021/01/20 02:17:23;;;;;;;3.33;2.80;;;6.40;99.90;;;;;;5013621;28;20415;-77
2021/01/20 02:19:55;;;;;;;5.20;2.53;;;6.60;99.90;;;;;;5009406;28;20442;-77
2021/01/20 02:22:37;;;;;;;4.93;3.10;;;6.70;99.90;;;;;;5009853;28;20428;-77
2021/01/20 02:25:32;;;;;;;3.43;3.03;;;6.80;99.90;;;;;;5034609;28;20441;-78
2021/01/20 02:28:09;;;;;;;4.90;3.03;;;6.80;99.90;;;;;;5025279;28;20455;-78
2021/01/20 02:30:38;;;;;;;4.70;3.10;;;6.70;99.90;;;;;;5014889;28;20450;-79
2021/01/20 02:33:06;;;;;;;7.43;3.47;;;6.70;99.90;;;;;;5013735;28;20453;-78
2021/01/20 02:35:32;;;;;;;3.87;2.60;;;6.70;99.90;;;;;;5014019;28;20415;-79
2021/01/20 02:38:01;;;;;;;2.90;2.30;;;6.70;99.90;;;;;;5020030;28;20418;-78
2021/01/20 02:40:27;;;;;;;5.47;2.23;;;6.70;99.90;;;;;;5015801;28;20817;-78
2021/01/20 02:42:52;;;;;;;4.13;2.97;;;6.70;99.90;;;;;;5009783;28;20447;-78
2021/01/20 02:45:19;;;;;;;4.50;3.20;;;6.80;99.90;;;;;;5008414;28;20438;-78
2021/01/20 02:47:46;;;;;;;7.80;2.73;;;6.80;99.90;;;;;;4996863;28;20292;-78
2021/01/20 02:50:13;;;;;;;4.50;2.77;;;6.80;99.90;;;;;;5012474;28;20458;-78
2021/01/20 02:52:39;;;;;;;3.80;2.90;;;6.80;99.90;;;;;;5042177;28;20561;-78
2021/01/20 02:55:06;;;;;;;4.43;2.53;;;6.70;99.90;;;;;;5030295;28;20419;-78
2021/01/20 02:57:34;;;;;;;5.07;2.83;;;6.80;99.90;;;;;;5027425;28;20172;-77
2021/01/20 03:00:02;;;;;;;3.87;2.20;;;6.90;99.90;;;;;;5026435;28;20442;-77
2021/01/20 03:02:28;;;;;;;2.90;2.60;;;6.90;99.90;;;;;;5042816;28;20603;-78
2021/01/20 03:04:57;;;;;;;3.67;2.30;;;6.90;99.90;;;;;;5024910;28;20431;-77
2021/01/20 03:07:23;;;;;;;4.93;2.30;;;6.90;99.90;;;;;;5022688;28;20459;-77
2021/01/20 03:09:48;;;;;;;2.33;1.80;;;7.00;99.90;;;;;;5032201;28;20495;-78
2021/01/20 03:12:14;;;;;;;4.80;2.63;;;7.00;99.90;;;;;;5031551;28;20888;-77
2021/01/20 03:14:43;;;;;;;2.33;1.90;;;7.00;99.90;;;;;;5014024;28;20588;-79
2021/01/20 03:17:08;;;;;;;5.80;2.40;;;7.10;99.90;;;;;;5029377;28;20186;-76
2021/01/20 03:19:34;;;;;;;4.30;2.50;;;7.10;99.90;;;;;;5027685;28;20527;-78
2021/01/20 03:21:59;;;;;;;2.60;2.30;;;7.10;99.90;;;;;;5010859;28;20673;-77
2021/01/20 03:24:25;;;;;;;3.10;2.70;;;7.20;99.90;;;;;;5028106;28;20181;-77
2021/01/20 03:26:51;;;;;;;4.30;2.53;;;7.30;99.90;;;;;;5011466;28;20269;-78
2021/01/20 03:29:16;;;;;;;3.23;2.63;;;7.30;99.90;;;;;;5012794;28;20180;-78
2021/01/20 03:31:42;;;;;;;3.00;1.77;;;7.40;99.90;;;;;;5012772;28;20204;-78
2021/01/20 03:34:07;;;;;;;4.03;3.20;;;7.40;99.90;;;;;;5028080;28;20184;-78
2021/01/20 03:36:33;;;;;;;2.37;2.17;;;7.50;99.90;;;;;;5018599;28;20181;-77
2021/01/20 03:38:59;;;;;;;2.60;2.37;;;7.50;99.90;;;;;;5012776;28;20180;-77
2021/01/20 03:41:24;;;;;;;3.70;2.37;;;7.50;99.90;;;;;;5013745;28;20204;-78
2021/01/20 03:43:50;;;;;;;3.70;2.30;;;7.50;99.90;;;;;;5013288;28;20176;-78
2021/01/20 03:46:16;;;;;;;2.57;2.37;;;7.50;99.90;;;;;;5012304;28;20588;-77
2021/01/20 03:48:41;;;;;;;2.70;2.40;;;7.50;99.90;;;;;;5006301;28;20246;-78
2021/01/20 03:51:07;;;;;;;5.30;2.33;;;7.50;99.90;;;;;;5010856;28;20455;-77
2021/01/20 03:53:32;;;;;;;4.50;3.50;;;7.50;99.90;;;;;;5012096;28;20182;-78
2021/01/20 03:55:58;;;;;;;3.93;2.67;;;7.60;99.90;;;;;;5022628;28;20175;-78
2021/01/20 03:58:24;;;;;;;3.03;2.23;;;7.60;99.90;;;;;;5031449;28;20222;-78
2021/01/20 04:00:50;;;;;;;5.63;2.63;;;7.60;99.90;;;;;;5012565;28;20266;-77
2021/01/20 04:03:15;;;;;;;2.40;2.20;;;7.60;99.90;;;;;;5026012;28;20179;-77
2021/01/20 04:05:41;;;;;;;3.73;2.90;;;7.60;99.90;;;;;;5013583;28;20443;-78
2021/01/20 04:08:06;;;;;;;3.00;2.30;;;7.50;99.90;;;;;;5013302;28;20229;-78
2021/01/20 04:10:32;;;;;;;3.13;2.50;;;7.40;99.90;;;;;;5003555;28;20283;-78
2021/01/20 04:12:58;;;;;;;2.27;2.07;;;7.30;99.90;;;;;;5013000;28;20205;-78
2021/01/20 04:15:23;;;;;;;3.70;3.00;;;7.10;99.90;;;;;;5015769;28;20187;-78
2021/01/20 04:17:49;;;;;;;5.80;3.90;;;7.10;99.90;;;;;;5032043;28;20188;-78
2021/01/20 04:20:14;;;;;;;4.33;2.70;;;7.00;99.90;;;;;;5013443;28;20191;-77
2021/01/20 04:22:40;;;;;;;7.50;2.80;;;7.10;99.90;;;;;;5011193;28;20180;-77
2021/01/20 04:25:06;;;;;;;3.33;2.60;;;7.20;99.90;;;;;;5010324;28;20218;-77
2021/01/20 04:27:32;;;;;;;3.23;2.93;;;7.20;99.90;;;;;;5011250;28;20693;-77
2021/01/20 04:29:58;;;;;;;5.07;3.10;;;7.10;99.90;;;;;;5010074;28;20485;-77
2021/01/20 04:32:23;;;;;;;3.10;2.80;;;7.10;99.90;;;;;;5011167;28;20431;-76
2021/01/20 04:34:49;;;;;;;3.50;3.17;;;7.10;99.90;;;;;;5010426;28;20184;-77
2021/01/20 04:37:14;;;;;;;2.63;2.43;;;7.00;99.90;;;;;;5011857;28;20255;-77
2021/01/20 04:39:40;;;;;;;4.40;2.53;;;6.90;99.90;;;;;;5011507;28;20258;-77
2021/01/20 04:42:06;;;;;;;5.70;3.50;;;6.90;99.90;;;;;;5007201;28;20208;-78
2021/01/20 04:44:32;;;;;;;3.67;2.50;;;6.90;99.90;;;;;;5012629;28;20180;-79
2021/01/20 04:47:00;;;;;;;7.33;3.33;;;6.90;99.90;;;;;;5013438;28;20489;-78
2021/01/20 04:49:26;;;;;;;11.27;3.47;;;6.90;99.90;;;;;;5012905;28;20446;-78
2021/01/20 04:51:55;;;;;;;4.10;3.30;;;6.90;99.90;;;;;;5015258;28;20512;-78
2021/01/20 04:54:22;;;;;;;5.73;3.03;;;7.00;99.90;;;;;;5012168;28;21075;-77
2021/01/20 04:56:48;;;;;;;5.07;2.90;;;7.00;99.90;;;;;;5013205;28;20971;-77
2021/01/20 04:59:15;;;;;;;5.23;3.80;;;7.10;99.90;;;;;;5017826;28;20930;-78
2021/01/20 05:01:41;;;;;;;3.10;2.80;;;7.10;99.90;;;;;;5011284;28;20590;-78
2021/01/20 05:04:09;;;;;;;6.73;3.03;;;7.10;99.90;;;;;;5029013;28;20427;-77
2021/01/20 05:06:35;;;;;;;3.27;2.87;;;7.20;99.90;;;;;;5034969;28;20557;-77
2021/01/20 05:09:01;;;;;;;3.97;2.53;;;7.20;99.90;;;;;;5022346;28;20423;-77
2021/01/20 05:11:44;;;;;;;5.93;3.40;;;7.20;99.90;;;;;;5022934;28;20435;-77
2021/01/20 05:14:14;;;;;;;3.20;2.93;;;7.20;99.90;;;;;;5023348;28;20483;-77
2021/01/20 05:16:40;;;;;;;4.63;2.67;;;7.20;99.90;;;;;;5016423;28;20423;-77
2021/01/20 05:19:06;;;;;;;4.30;3.30;;;7.20;99.90;;;;;;5012035;28;20411;-78
2021/01/20 05:21:32;;;;;;;3.50;3.20;;;7.20;99.90;;;;;;5006365;28;20814;-77
2021/01/20 05:24:36;;;;;;;2.60;2.40;;;7.20;99.90;;;;;;5011875;28;20411;-78
2021/01/20 05:27:03;;;;;;;4.40;3.20;;;7.20;99.90;;;;;;4964751;28;20204;-78
2021/01/20 05:29:29;;;;;;;5.00;3.40;;;7.20;99.90;;;;;;4992014;28;20427;-77
2021/01/20 05:31:55;;;;;;;10.27;4.60;;;7.20;99.90;;;;;;5000696;28;20960;-78
2021/01/20 05:34:28;;;;;;;7.53;3.67;;;7.20;99.90;;;;;;5003274;28;20435;-78
2021/01/20 05:37:10;;;;;;;5.83;4.10;;;7.20;99.90;;;;;;5038180;28;20446;-79
2021/01/20 05:39:38;;;;;;;6.00;3.10;;;7.20;99.90;;;;;;5041765;28;20423;-77
2021/01/20 05:42:08;;;;;;;5.80;3.30;;;7.20;99.90;;;;;;5026541;28;20442;-78
2021/01/20 05:44:35;;;;;;;6.53;3.70;;;7.20;99.90;;;;;;5027139;28;20411;-78
2021/01/20 05:47:13;;;;;;;5.73;3.30;;;7.10;99.90;;;;;;5025561;28;20486;-78
2021/01/20 05:49:39;;;;;;;6.70;3.50;;;7.20;99.90;;;;;;5027345;28;20435;-78
2021/01/20 05:52:15;;;;;;;6.77;3.27;;;7.20;99.90;;;;;;5038728;28;20439;-79
2021/01/20 05:54:41;;;;;;;7.27;4.00;;;7.20;99.90;;;;;;5026729;28;20431;-78
2021/01/20 05:57:19;;;;;;;3.53;3.07;;;7.20;99.90;;;;;;5034837;28;20501;-78
2021/01/20 05:59:50;;;;;;;6.03;3.10;;;7.20;99.90;;;;;;5012439;28;20445;-78
2021/01/20 06:02:17;;;;;;;4.73;2.67;;;7.20;99.90;;;;;;5017034;28;20459;-78
2021/01/20 06:04:43;;;;;;;4.00;2.40;;;7.20;99.90;;;;;;5016597;28;20407;-77
2021/01/20 06:07:10;;;;;;;5.90;2.30;;;7.20;99.90;;;;;;5017414;28;20457;-77
2021/01/20 06:09:38;;;;;;;3.40;2.43;;;7.30;99.90;;;;;;5016047;28;20427;-78
2021/01/20 06:12:07;;;;;;;2.13;1.67;;;7.20;99.90;;;;;;5026182;28;20964;-77
2021/01/20 06:14:33;;;;;;;4.23;2.33;;;7.20;99.90;;;;;;5044747;28;20430;-78
2021/01/20 06:17:29;;;;;;;4.20;2.50;;;7.20;99.90;;;;;;5014361;28;20415;-79
2021/01/20 06:20:00;;;;;;;5.10;2.90;;;7.20;99.90;;;;;;5009952;28;20188;-79
2021/01/20 06:22:26;;;;;;;2.93;2.37;;;7.20;99.90;;;;;;5018925;28;20797;-78
2021/01/20 06:24:57;;;;;;;4.40;3.20;;;7.20;99.90;;;;;;5026791;28;20495;-79
2021/01/20 06:27:37;;;;;;;4.93;2.50;;;7.20;99.90;;;;;;5026816;28;20451;-79
2021/01/20 06:30:34;;;;;;;7.10;2.33;;;7.20;99.90;;;;;;5042601;28;20447;-78
2021/01/20 06:33:05;;;;;;;3.23;2.87;;;7.30;99.90;;;;;;5012069;28;20528;-78
2021/01/20 06:35:42;;;;;;;3.80;2.53;;;7.30;99.90;;;;;;5017330;28;20817;-77
2021/01/20 06:38:26;;;;;;;4.07;2.20;;;7.30;99.90;;;;;;5017429;28;20472;-78
2021/01/20 06:40:52;;;;;;;9.13;2.47;;;7.30;99.90;;;;;;5030478;28;20438;-78
2021/01/20 06:43:31;;;;;;;4.17;2.60;;;7.30;99.90;;;;;;5012895;28;20943;-78
2021/01/20 06:46:28;;;;;;;3.87;2.40;;;7.20;99.90;;;;;;5013894;28;20473;-77
2021/01/20 06:48:54;;;;;;;7.20;2.97;;;7.20;99.90;;;;;;5006082;28;20426;-79
2021/01/20 06:51:24;;;;;;;5.43;2.10;;;7.20;99.90;;;;;;5041573;28;20440;-78
2021/01/20 06:53:59;;;;;;;2.53;2.33;;;7.30;99.90;;;;;;5025495;28;20271;-77
2021/01/20 06:56:46;;;;;;;3.43;2.33;;;7.30;99.90;;;;;;5037827;28;20427;-78
2021/01/20 06:59:28;;;;;;;3.43;2.57;;;7.40;99.90;;;;;;5025048;28;20418;-78
2021/01/20 07:02:02;;;;;;;4.17;2.40;;;7.30;99.90;;;;;;5018407;28;20459;-78
2021/01/20 07:04:37;;;;;;;5.47;2.60;;;7.40;99.90;;;;;;5042479;28;20430;-77
2021/01/20 07:07:13;;;;;;;3.30;2.23;;;7.40;99.90;;;;;;5019791;28;20458;-77
2021/01/20 07:09:51;;;;;;;3.20;2.27;;;7.40;99.90;;;;;;5014948;28;20465;-78
2021/01/20 07:12:24;;;;;;;3.27;2.90;;;7.40;99.90;;;;;;5022156;28;20455;-77
2021/01/20 07:14:51;;;;;;;3.63;2.40;;;7.50;99.90;;;;;;5011802;28;20435;-78
2021/01/20 07:17:17;;;;;;;8.10;4.63;;;7.50;99.90;;;;;;5013365;28;20438;-78
2021/01/20 07:19:47;;;;;;;7.10;3.53;;;7.40;99.90;;;;;;5023931;28;20426;-78
2021/01/20 07:22:14;;;;;;;4.20;3.10;;;7.50;99.90;;;;;;5016616;28;20442;-79
2021/01/20 07:24:41;;;;;;;4.73;3.40;;;7.50;99.90;;;;;;5013482;28;20443;-78
2021/01/20 07:27:14;;;;;;;4.63;2.80;;;7.60;99.90;;;;;;5036653;28;20462;-78
2021/01/20 07:29:40;;;;;;;4.37;2.70;;;7.60;99.90;;;;;;5020841;28;20435;-78
2021/01/20 07:32:06;;;;;;;4.77;2.70;;;7.60;99.90;;;;;;5023227;28;20515;-79
2021/01/20 07:34:37;;;;;;;4.87;2.47;;;7.70;99.90;;;;;;5013947;28;21106;-78
2021/01/20 07:37:13;;;;;;;2.80;2.30;;;7.70;99.90;;;;;;5012884;28;20791;-78
2021/01/20 07:39:41;;;;;;;2.60;2.10;;;7.70;99.90;;;;;;5020614;28;20475;-78
2021/01/20 07:42:07;;;;;;;2.50;2.17;;;7.70;99.90;;;;;;5023489;28;20486;-78
2021/01/20 07:44:34;;;;;;;5.70;2.10;;;7.70;99.90;;;;;;5037609;28;21120;-79
2021/01/20 07:47:08;;;;;;;3.00;2.47;;;7.70;99.90;;;;;;5018462;28;20471;-78
2021/01/20 07:49:38;;;;;;;3.97;2.47;;;7.70;99.90;;;;;;5022953;28;20445;-79
2021/01/20 07:52:06;;;;;;;3.87;2.43;;;7.70;99.90;;;;;;5012654;28;20432;-78
2021/01/20 07:54:44;;;;;;;3.13;2.40;;;7.70;99.90;;;;;;5009120;28;20420;-79
2021/01/20 07:57:16;;;;;;;3.17;2.40;;;7.70;99.90;;;;;;5014974;28;20826;-78
2021/01/20 07:59:42;;;;;;;4.87;1.93;;;7.70;99.90;;;;;;5012757;28;20974;-78
2021/01/20 08:02:11;;;;;;;2.37;1.87;;;7.70;99.90;;;;;;5012093;28;20863;-79
2021/01/20 08:04:38;;;;;;;3.20;2.50;;;7.70;99.90;;;;;;5014388;28;20422;-79
2021/01/20 08:07:05;;;;;;;3.83;2.60;;;7.70;99.90;;;;;;5011453;28;20815;-78
2021/01/20 08:09:43;;;;;;;3.30;2.50;;;7.70;99.90;;;;;;5012112;28;21013;-78
2021/01/20 08:12:30;;;;;;;4.00;2.80;;;7.60;99.90;;;;;;5006928;28;20423;-78
2021/01/20 08:14:57;;;;;;;4.90;2.10;;;7.60;99.90;;;;;;5013469;28;20468;-78
2021/01/20 08:17:23;;;;;;;3.13;2.60;;;7.50;99.90;;;;;;5016036;28;20832;-78
2021/01/20 08:19:53;;;;;;;5.00;2.70;;;7.60;99.90;;;;;;5008080;28;20446;-79
2021/01/20 08:22:19;;;;;;;3.00;2.37;;;7.60;99.90;;;;;;5018314;28;20415;-78
2021/01/20 08:24:46;;;;;;;2.40;2.10;;;7.60;99.90;;;;;;5009054;28;20426;-78
2021/01/20 08:27:12;;;;;;;4.47;2.13;;;7.60;99.90;;;;;;5013356;28;21157;-79
2021/01/20 08:29:48;;;;;;;3.07;2.70;;;7.60;99.90;;;;;;5020484;28;20439;-78
2021/01/20 08:32:14;;;;;;;2.80;2.43;;;7.60;99.90;;;;;;5012106;28;20922;-79
2021/01/20 08:34:44;;;;;;;5.20;2.53;;;7.60;99.90;;;;;;5010834;28;20431;-78
2021/01/20 08:37:18;;;;;;;3.37;2.80;;;7.60;99.90;;;;;;5025596;28;20174;-78
2021/01/20 08:39:56;;;;;;;5.43;2.70;;;7.60;99.90;;;;;;5031127;28;20423;-78
2021/01/20 08:42:32;;;;;;;3.20;2.73;;;7.60;99.90;;;;;;5011346;28;21021;-77
2021/01/20 08:45:13;;;;;;;2.73;2.30;;;7.70;99.90;;;;;;5028229;28;20434;-79
2021/01/20 08:47:46;;;;;;;3.30;3.00;;;7.60;99.90;;;;;;5016644;28;20474;-78
2021/01/20 08:50:13;;;;;;;2.87;2.00;;;7.70;99.90;;;;;;5013089;28;20459;-78
2021/01/20 08:52:44;;;;;;;4.03;1.90;;;7.70;99.90;;;;;;5011807;28;20435;-78
2021/01/20 08:55:22;;;;;;;3.10;2.40;;;7.70;99.90;;;;;;5020272;28;20409;-79
2021/01/20 08:58:21;;;;;;;4.63;2.53;;;7.80;99.90;;;;;;5011513;28;20443;-78
2021/01/20 09:00:49;;;;;;;4.73;2.07;;;7.70;99.90;;;;;;5008742;28;20859;-78
2021/01/20 09:03:16;;;;;;;3.47;2.13;;;7.80;99.90;;;;;;5007719;28;20438;-78
2021/01/20 09:05:42;;;;;;;3.67;2.53;;;7.70;99.90;;;;;;5012303;28;20492;-78
2021/01/20 09:08:08;;;;;;;5.70;2.73;;;7.70;99.90;;;;;;5014560;28;20471;-78
2021/01/20 09:10:34;;;;;;;4.37;2.90;;;7.70;99.90;;;;;;5037813;28;20485;-78
2021/01/20 09:13:00;;;;;;;3.30;2.57;;;7.80;99.90;;;;;;5024216;28;20177;-78
2021/01/20 09:15:25;;;;;;;3.23;2.30;;;7.80;99.90;;;;;;5026790;28;20934;-77
2021/01/20 09:17:51;;;;;;;3.70;3.00;;;7.80;99.90;;;;;;5018305;28;20183;-79
2021/01/20 09:20:17;;;;;;;3.30;2.43;;;7.80;99.90;;;;;;5023598;28;20196;-78
2021/01/20 09:22:42;;;;;;;4.20;3.33;;;7.90;99.90;;;;;;5015886;28;20195;-79
2021/01/20 09:25:09;;;;;;;4.07;2.80;;;7.90;99.90;;;;;;5015067;28;20190;-78
2021/01/20 09:27:34;;;;;;;3.40;3.10;;;8.00;99.90;;;;;;5016208;28;20207;-78
2021/01/20 09:30:00;;;;;;;3.20;1.80;;;7.90;99.90;;;;;;5009327;28;20447;-78
2021/01/20 09:32:25;;;;;;;3.00;2.70;;;8.00;99.90;;;;;;5016460;28;20172;-78
2021/01/20 09:34:51;;;;;;;7.33;2.40;;;8.00;99.90;;;;;;5026822;28;20180;-78
2021/01/20 09:37:16;;;;;;;4.43;2.63;;;8.10;99.90;;;;;;5015930;28;20271;-78
2021/01/20 09:39:42;;;;;;;5.10;2.73;;;8.10;99.90;;;;;;5013575;28;20184;-78
2021/01/20 09:42:08;;;;;;;2.50;2.30;;;8.20;99.90;;;;;;5015694;28;20200;-77
2021/01/20 09:44:33;;;;;;;2.30;2.10;;;8.20;99.90;;;;;;5023072;28;20188;-78
2021/01/20 09:47:01;;;;;;;4.77;2.73;;;8.10;99.90;;;;;;5018583;28;20210;-78
2021/01/20 09:49:27;;;;;;;3.13;2.57;;;8.20;99.90;;;;;;5024537;28;20513;-78
2021/01/20 09:51:53;;;;;;;3.50;3.03;;;8.30;99.90;;;;;;5012250;28;20462;-78
2021/01/20 09:54:18;;;;;;;3.50;2.80;;;8.30;99.90;;;;;;5023490;28;20263;-78
2021/01/20 09:56:44;;;;;;;3.30;2.47;;;8.40;99.90;;;;;;5014521;28;20271;-78
2021/01/20 09:59:09;;;;;;;5.30;2.90;;;8.40;99.90;;;;;;5029104;28;20178;-78
2021/01/20 10:01:35;;;;;;;3.67;2.50;;;8.40;99.90;;;;;;5004801;28;20205;-78
2021/01/20 10:04:01;;;;;;;3.50;2.43;;;8.60;99.90;;;;;;5017685;28;20657;-79
2021/01/20 10:06:26;;;;;;;3.23;2.53;;;8.50;99.90;;;;;;5012573;28;20405;-79
2021/01/20 10:08:52;;;;;;;8.43;2.87;;;8.70;99.90;;;;;;5011933;28;20207;-78
2021/01/20 10:11:18;;;;;;;3.63;2.80;;;8.70;99.90;;;;;;5014417;28;20206;-78
2021/01/20 10:13:43;;;;;;;9.70;3.10;;;8.80;99.90;;;;;;5012837;28;20208;-78
2021/01/20 10:16:09;;;;;;;2.83;2.53;;;8.80;99.90;;;;;;5017216;28;20248;-79
2021/01/20 10:18:34;;;;;;;3.77;2.30;;;9.00;99.90;;;;;;5016449;28;20195;-79
2021/01/20 10:21:00;;;;;;;4.20;2.33;;;9.00;99.90;;;;;;5025638;28;20198;-78
2021/01/20 10:23:26;;;;;;;2.87;2.37;;;9.00;99.90;;;;;;5013592;28;20649;-78
2021/01/20 10:25:52;;;;;;;2.33;2.13;;;9.10;99.90;;;;;;5025492;28;20188;-78
2021/01/20 10:28:18;;;;;;;3.00;2.37;;;9.10;99.90;;;;;;5011847;28;20265;-78
2021/01/20 10:30:44;;;;;;;6.17;3.10;;;8.90;99.90;;;;;;5014768;28;20455;-78
2021/01/20 10:33:10;;;;;;;3.77;2.60;;;9.00;99.90;;;;;;5013272;28;20659;-78
2021/01/20 10:35:36;;;;;;;4.30;2.60;;;9.00;99.90;;;;;;4999280;28;20199;-78
2021/01/20 10:38:02;;;;;;;4.13;2.33;;;9.20;99.90;;;;;;5020488;28;20950;-78
2021/01/20 10:40:28;;;;;;;3.70;2.50;;;9.20;99.90;;;;;;5036354;28;20604;-78
2021/01/20 10:42:53;;;;;;;3.57;2.40;;;9.20;99.90;;;;;;5028357;28;20431;-77
2021/01/20 10:45:19;;;;;;;3.93;2.33;;;9.30;99.90;;;;;;5024051;28;20685;-77
2021/01/20 10:47:45;;;;;;;6.10;2.30;;;9.30;99.90;;;;;;5021307;28;20200;-79
2021/01/20 10:50:11;;;;;;;3.27;3.07;;;9.30;99.90;;;;;;5021948;28;20184;-79
2021/01/20 10:52:37;;;;;;;3.60;2.63;;;9.30;99.90;;;;;;5023196;28;21059;-79
2021/01/20 10:55:03;;;;;;;4.53;2.83;;;9.20;99.90;;;;;;5021678;28;20439;-79
2021/01/20 10:57:29;;;;;;;4.07;2.23;;;9.20;99.90;;;;;;5029577;28;20289;-78
2021/01/20 10:59:56;;;;;;;3.37;2.50;;;9.20;99.90;;;;;;5021689;28;20940;-78
2021/01/20 11:02:22;;;;;;;2.40;1.90;;;9.20;99.90;;;;;;5024502;28;20184;-79
2021/01/20 11:04:48;;;;;;;2.43;2.23;;;9.30;99.90;;;;;;5042385;28;20951;-78
2021/01/20 11:07:14;;;;;;;2.60;2.20;;;9.30;99.90;;;;;;5026835;28;20467;-78
2021/01/20 11:09:39;;;;;;;2.53;2.33;;;9.30;99.90;;;;;;5019651;28;20314;-78
2021/01/20 11:12:05;;;;;;;2.90;2.37;;;9.30;99.90;;;;;;5015977;28;20211;-78
2021/01/20 11:14:32;;;;;;;8.50;3.40;;;9.40;99.90;;;;;;5013322;28;20266;-79
2021/01/20 11:16:58;;;;;;;6.93;3.43;;;9.50;99.90;;;;;;5012947;28;20546;-78
2021/01/20 11:19:24;;;;;;;8.50;3.80;;;9.50;99.90;;;;;;5012273;28;20430;-77
2021/01/20 11:21:49;;;;;;;6.97;4.03;;;9.60;99.90;;;;;;5015220;28;20450;-78
2021/01/20 11:24:18;;;;;;;9.33;3.50;;;9.60;99.90;;;;;;5018197;28;20184;-78
2021/01/20 11:26:47;;;;;;;5.07;3.30;;;9.60;99.90;;;;;;5017444;28;20175;-78
2021/01/20 11:29:14;;;;;;;5.03;3.07;;;9.70;99.90;;;;;;5013514;28;20458;-78
2021/01/20 11:31:40;;;;;;;4.83;3.23;;;9.60;99.90;;;;;;5012716;28;20443;-78
2021/01/20 11:34:05;;;;;;;3.57;2.60;;;9.60;99.90;;;;;;5013465;28;20439;-79
2021/01/20 11:36:31;;;;;;;6.50;3.20;;;9.60;99.90;;;;;;5014402;28;20400;-78
2021/01/20 11:38:57;;;;;;;4.80;3.47;;;9.60;99.90;;;;;;5014178;28;20189;-77
2021/01/20 11:41:22;;;;;;;10.00;3.57;;;9.60;99.90;;;;;;5013112;28;20192;-78
2021/01/20 11:43:48;;;;;;;3.77;2.97;;;9.70;99.90;;;;;;5020130;28;20198;-78
2021/01/20 11:46:14;;;;;;;6.63;2.77;;;9.70;99.90;;;;;;5013082;28;20641;-78
2021/01/20 11:48:40;;;;;;;2.90;2.43;;;9.70;99.90;;;;;;5012626;28;20211;-78
2021/01/20 11:51:06;;;;;;;11.07;2.23;;;9.80;99.90;;;;;;4993110;28;20793;-78
2021/01/20 11:53:32;;;;;;;5.93;2.97;;;9.80;99.90;;;;;;4993267;28;20411;-78
2021/01/20 11:55:57;;;;;;;5.20;3.53;;;9.80;99.90;;;;;;5004946;28;20414;-78
2021/01/20 11:58:23;;;;;;;3.43;2.47;;;9.80;99.90;;;;;;5012863;28;20184;-78
2021/01/20 12:00:49;;;;;;;5.70;3.90;;;9.80;99.90;;;;;;5011072;28;20986;-78
2021/01/20 12:03:14;;;;;;;3.87;2.87;;;9.80;99.90;;;;;;5012985;28;20222;-79
2021/01/20 12:05:40;;;;;;;4.93;3.03;;;9.80;99.90;;;;;;5012671;28;20654;-78
2021/01/20 12:08:05;;;;;;;6.50;2.80;;;9.80;99.90;;;;;;5012611;28;20202;-78
2021/01/20 12:10:31;;;;;;;2.67;2.47;;;9.90;99.90;;;;;;5012740;28;20196;-78
2021/01/20 12:12:57;;;;;;;3.37;2.90;;;9.90;99.90;;;;;;5012408;28;20254;-78
2021/01/20 12:15:22;;;;;;;5.20;3.27;;;9.80;99.90;;;;;;5012567;28;20243;-78
2021/01/20 12:17:48;;;;;;;13.60;7.53;;;9.70;99.90;;;;;;5012673;28;20172;-78
2021/01/20 12:20:14;;;;;;;5.40;3.50;;;9.70;99.90;;;;;;5010852;28;20205;-77
2021/01/20 12:22:40;;;;;;;3.47;2.60;;;9.60;99.90;;;;;;5012319;28;20678;-76
2021/01/20 12:25:07;;;;;;;5.67;3.00;;;9.60;99.90;;;;;;5029087;28;20450;-76
2021/01/20 12:27:33;;;;;;;8.57;2.70;;;9.70;99.90;;;;;;5011999;28;20627;-77
2021/01/20 12:29:59;;;;;;;4.90;2.57;;;9.80;99.90;;;;;;5013102;28;20451;-77
2021/01/20 12:32:25;;;;;;;6.50;2.90;;;9.80;99.90;;;;;;5012159;28;20458;-77
2021/01/20 12:34:51;;;;;;;4.23;3.30;;;9.90;99.90;;;;;;5010849;28;20505;-77
2021/01/20 12:37:17;;;;;;;3.60;2.40;;;9.90;99.90;;;;;;5010958;28;20498;-77
2021/01/20 12:39:42;;;;;;;4.03;2.60;;;9.90;99.90;;;;;;5013182;28;20675;-77
2021/01/20 12:42:08;;;;;;;2.73;2.07;;;9.90;99.90;;;;;;5010638;28;20751;-76
2021/01/20 12:44:33;;;;;;;3.30;2.50;;;9.90;99.90;;;;;;5011612;28;20184;-77
2021/01/20 12:46:59;;;;;;;4.80;2.60;;;10.00;99.90;;;;;;5010727;28;20267;-77
2021/01/20 12:49:25;;;;;;;3.20;2.53;;;10.00;99.90;;;;;;5011858;28;20192;-77
2021/01/20 12:51:51;;;;;;;2.60;2.40;;;10.00;99.90;;;;;;5022411;28;20199;-77
2021/01/20 12:54:16;;;;;;;5.20;3.33;;;9.90;99.90;;;;;;5014962;28;20421;-77
2021/01/20 12:56:42;;;;;;;3.63;2.57;;;10.00;99.90;;;;;;5011945;28;20255;-77
2021/01/20 12:59:08;;;;;;;6.90;3.40;;;10.00;99.90;;;;;;5010377;28;20267;-77
2021/01/20 13:01:33;;;;;;;8.13;3.70;;;10.00;99.90;;;;;;5026965;28;20195;-78